Time,TemperatureF,DewpointF,PressureIn,WindDirection,WindDirectionDegrees,WindSpeedMPH,WindSpeedGustMPH,Humidity,HourlyPrecipIn,Conditions,Clouds,dailyrainin,SoftwareType,DateUTC
2013-10-27 00:01:00,27.1,19.9,30.01,West,270,0.0,0.0,74,0.00,,,0.00,WUHU216HW,2013-10-27 05:01:00,
2013-10-27 00:06:00,26.7,19.8,30.01,West,270,0.0,0.0,75,0.00,,,0.00,WUHU216HW,2013-10-27 05:06:00,
2013-10-27 00:11:00,26.6,19.6,30.01,West,270,0.0,0.0,75,0.00,,,0.00,WUHU216HW,2013-10-27 05:11:00,
2013-10-27 00:16:00,26.4,19.7,30.01,West,270,0.0,0.0,76,0.00,,,0.00,WUHU216HW,2013-10-27 05:16:00,
2013-10-27 00:21:00,26.9,20.3,30.00,West,270,0.0,0.0,76,0.00,,,0.00,WUHU216HW,2013-10-27 05:21:00,
2013-10-27 00:26:00,26.6,19.9,30.00,West,270,0.0,0.0,76,0.00,,,0.00,WUHU216HW,2013-10-27 05:26:00,
2013-10-27 00:31:00,26.4,19.7,30.00,West,270,0.0,0.0,76,0.00,,,0.00,WUHU216HW,2013-10-27 05:31:00,
2013-10-27 00:36:00,26.4,19.7,30.00,West,270,0.0,0.0,76,0.00,,,0.00,WUHU216HW,2013-10-27 05:36:00,
2013-10-27 00:41:00,26.2,19.6,30.00,West,270,0.0,0.0,76,0.00,,,0.00,WUHU216HW,2013-10-27 05:41:00,
2013-10-27 00:46:00,26.2,19.9,30.00,West,270,0.0,0.0,77,0.00,,,0.00,WUHU216HW,2013-10-27 05:46:00,
2013-10-27 00:51:00,26.2,19.9,30.00,SSW,203,0.0,0.0,77,0.00,,,0.00,WUHU216HW,2013-10-27 05:51:00,
2013-10-27 00:56:00,26.2,19.9,30.00,SSW,203,0.0,0.0,77,0.00,,,0.00,WUHU216HW,2013-10-27 05:56:00,
2013-10-27 01:01:00,26.2,19.9,29.99,SSW,203,0.0,0.0,77,0.00,,,0.00,WUHU216HW,2013-10-27 06:01:00,
2013-10-27 01:06:00,26.2,20.2,30.00,SW,225,0.0,0.0,78,0.00,,,0.00,WUHU216HW,2013-10-27 06:06:00,
2013-10-27 01:11:00,26.4,20.4,30.00,SW,225,0.0,0.0,78,0.00,,,0.00,WUHU216HW,2013-10-27 06:11:00,
2013-10-27 01:16:00,26.6,20.5,30.00,SW,225,0.0,0.0,78,0.00,,,0.00,WUHU216HW,2013-10-27 06:16:00,
2013-10-27 01:21:00,26.4,20.7,29.99,SW,225,0.0,0.0,79,0.00,,,0.00,WUHU216HW,2013-10-27 06:21:00,
2013-10-27 01:26:00,26.4,20.7,29.99,SW,225,0.0,0.0,79,0.00,,,0.00,WUHU216HW,2013-10-27 06:26:00,
2013-10-27 01:31:00,26.4,20.7,29.98,SW,225,0.0,0.0,79,0.00,,,0.00,WUHU216HW,2013-10-27 06:31:00,
2013-10-27 01:36:00,26.4,20.7,29.98,SW,225,0.0,0.0,79,0.00,,,0.00,WUHU216HW,2013-10-27 06:36:00,
2013-10-27 01:41:00,26.4,20.7,29.98,SW,225,0.0,0.0,79,0.00,,,0.00,WUHU216HW,2013-10-27 06:41:00,
2013-10-27 01:46:00,26.4,20.7,29.97,SW,225,0.0,0.0,79,0.00,,,0.00,WUHU216HW,2013-10-27 06:46:00,
2013-10-27 01:51:00,26.7,21.0,29.97,SSW,203,0.0,0.0,79,0.00,,,0.00,WUHU216HW,2013-10-27 06:51:00,
2013-10-27 01:56:00,26.7,21.0,29.98,South,180,0.0,0.0,79,0.00,,,0.00,WUHU216HW,2013-10-27 06:56:00,
2013-10-27 02:01:00,26.6,20.8,29.97,SSW,203,0.0,0.0,79,0.00,,,0.00,WUHU216HW,2013-10-27 07:01:00,
2013-10-27 02:06:00,26.7,21.3,29.97,SW,225,0.0,0.0,80,0.00,,,0.00,WUHU216HW,2013-10-27 07:06:00,
2013-10-27 02:11:00,26.9,21.5,29.98,SSW,203,0.0,0.0,80,0.00,,,0.00,WUHU216HW,2013-10-27 07:11:00,
2013-10-27 02:16:00,26.9,21.5,29.97,SSW,203,0.0,0.0,80,0.00,,,0.00,WUHU216HW,2013-10-27 07:16:00,
2013-10-27 02:21:00,27.1,21.7,29.97,SSW,203,0.0,0.0,80,0.00,,,0.00,WUHU216HW,2013-10-27 07:21:00,
2013-10-27 02:26:00,27.1,22.0,29.97,SW,225,0.0,0.0,81,0.00,,,0.00,WUHU216HW,2013-10-27 07:26:00,
2013-10-27 02:31:00,27.1,22.0,29.97,WSW,248,0.0,0.0,81,0.00,,,0.00,WUHU216HW,2013-10-27 07:31:00,
2013-10-27 02:36:00,27.1,22.0,29.97,SSW,203,0.0,0.0,81,0.00,,,0.00,WUHU216HW,2013-10-27 07:36:00,
2013-10-27 02:41:00,27.1,22.0,29.97,SSW,203,0.0,0.0,81,0.00,,,0.00,WUHU216HW,2013-10-27 07:41:00,
2013-10-27 02:46:00,27.1,22.0,29.97,SW,225,0.0,0.0,81,0.00,,,0.00,WUHU216HW,2013-10-27 07:46:00,
2013-10-27 02:51:00,27.1,22.0,29.97,WSW,248,0.0,0.0,81,0.00,,,0.00,WUHU216HW,2013-10-27 07:51:00,
2013-10-27 02:56:00,27.1,22.0,29.97,SSW,203,0.0,0.0,81,0.00,,,0.00,WUHU216HW,2013-10-27 07:56:00,
2013-10-27 03:01:00,26.9,21.8,29.96,SSW,203,0.0,0.0,81,0.00,,,0.00,WUHU216HW,2013-10-27 08:01:00,
2013-10-27 03:06:00,26.7,21.6,29.96,SW,225,0.0,0.0,81,0.00,,,0.00,WUHU216HW,2013-10-27 08:06:00,
2013-10-27 03:11:00,26.6,21.4,29.96,SSW,203,0.0,0.0,81,0.00,,,0.00,WUHU216HW,2013-10-27 08:11:00,
2013-10-27 03:16:00,26.6,21.4,29.95,SSW,203,0.0,0.0,81,0.00,,,0.00,WUHU216HW,2013-10-27 08:16:00,
2013-10-27 03:21:00,26.6,21.4,29.95,SW,225,0.0,0.0,81,0.00,,,0.00,WUHU216HW,2013-10-27 08:21:00,
2013-10-27 03:26:00,26.4,21.3,29.95,SSW,203,0.0,0.0,81,0.00,,,0.00,WUHU216HW,2013-10-27 08:26:00,
2013-10-27 03:31:00,26.4,21.3,29.95,SSW,203,0.0,0.0,81,0.00,,,0.00,WUHU216HW,2013-10-27 08:31:00,
2013-10-27 03:36:00,26.4,21.3,29.95,SSW,203,0.0,0.0,81,0.00,,,0.00,WUHU216HW,2013-10-27 08:36:00,
2013-10-27 03:41:00,26.4,21.3,29.95,SW,225,0.0,0.0,81,0.00,,,0.00,WUHU216HW,2013-10-27 08:41:00,
2013-10-27 03:46:00,26.4,21.3,29.94,SSW,203,0.0,0.0,81,0.00,,,0.00,WUHU216HW,2013-10-27 08:46:00,
2013-10-27 03:51:00,26.4,21.3,29.94,South,180,0.0,0.0,81,0.00,,,0.00,WUHU216HW,2013-10-27 08:51:00,
2013-10-27 03:56:00,26.4,21.3,29.94,SW,225,0.0,0.0,81,0.00,,,0.00,WUHU216HW,2013-10-27 08:56:00,
2013-10-27 04:01:00,26.4,21.3,29.94,SSW,203,0.0,0.0,81,0.00,,,0.00,WUHU216HW,2013-10-27 09:01:00,
2013-10-27 04:06:00,26.4,21.3,29.93,South,180,0.0,0.0,81,0.00,,,0.00,WUHU216HW,2013-10-27 09:06:00,
2013-10-27 04:11:00,26.4,21.5,29.93,SSW,203,0.0,0.0,82,0.00,,,0.00,WUHU216HW,2013-10-27 09:11:00,
2013-10-27 04:16:00,26.6,21.7,29.93,SSW,203,0.0,0.0,82,0.00,,,0.00,WUHU216HW,2013-10-27 09:16:00,
2013-10-27 04:21:00,26.9,22.1,29.93,SSW,203,0.0,0.0,82,0.00,,,0.00,WUHU216HW,2013-10-27 09:21:00,
2013-10-27 04:26:00,27.1,22.3,29.93,SSW,203,0.0,0.0,82,0.00,,,0.00,WUHU216HW,2013-10-27 09:26:00,
2013-10-27 04:31:00,27.3,22.4,29.93,SSW,203,0.0,0.0,82,0.00,,,0.00,WUHU216HW,2013-10-27 09:31:00,
2013-10-27 04:36:00,27.3,22.4,29.93,SSW,203,0.0,0.0,82,0.00,,,0.00,WUHU216HW,2013-10-27 09:36:00,
2013-10-27 04:41:00,27.3,22.4,29.92,SSW,203,0.0,0.0,82,0.00,,,0.00,WUHU216HW,2013-10-27 09:41:00,
2013-10-27 04:46:00,27.3,22.4,29.93,SSW,203,0.0,0.0,82,0.00,,,0.00,WUHU216HW,2013-10-27 09:46:00,
2013-10-27 04:51:00,27.3,22.4,29.93,South,180,0.0,0.0,82,0.00,,,0.00,WUHU216HW,2013-10-27 09:51:00,
2013-10-27 04:56:00,27.5,22.6,29.92,South,180,0.0,0.0,82,0.00,,,0.00,WUHU216HW,2013-10-27 09:56:00,
2013-10-27 05:01:00,27.6,22.8,29.93,South,180,0.0,0.0,82,0.00,,,0.00,WUHU216HW,2013-10-27 10:01:00,
2013-10-27 05:06:00,28.0,23.2,29.92,SSW,203,0.0,0.0,82,0.00,,,0.00,WUHU216HW,2013-10-27 10:06:00,
2013-10-27 05:11:00,28.0,23.2,29.92,SSW,203,0.0,0.0,82,0.00,,,0.00,WUHU216HW,2013-10-27 10:11:00,
2013-10-27 05:16:00,28.0,23.2,29.92,SSW,203,0.0,0.0,82,0.00,,,0.00,WUHU216HW,2013-10-27 10:16:00,
2013-10-27 05:21:00,27.8,23.0,29.92,SSW,203,0.0,0.0,82,0.00,,,0.00,WUHU216HW,2013-10-27 10:21:00,
2013-10-27 05:26:00,28.0,23.2,29.92,SSW,203,0.0,0.0,82,0.00,,,0.00,WUHU216HW,2013-10-27 10:26:00,
2013-10-27 05:31:00,27.8,23.0,29.92,SSW,203,0.0,0.0,82,0.00,,,0.00,WUHU216HW,2013-10-27 10:31:00,
2013-10-27 05:36:00,28.0,23.2,29.92,SSW,203,0.0,0.0,82,0.00,,,0.00,WUHU216HW,2013-10-27 10:36:00,
2013-10-27 05:41:00,28.0,23.2,29.92,SSW,203,0.0,0.0,82,0.00,,,0.00,WUHU216HW,2013-10-27 10:41:00,
2013-10-27 05:46:00,28.2,23.3,29.92,SSW,203,0.0,0.0,82,0.00,,,0.00,WUHU216HW,2013-10-27 10:46:00,
2013-10-27 05:51:00,28.2,23.3,29.92,SSW,203,0.0,0.0,82,0.00,,,0.00,WUHU216HW,2013-10-27 10:51:00,
2013-10-27 05:56:00,28.2,23.3,29.91,SSW,203,0.0,0.0,82,0.00,,,0.00,WUHU216HW,2013-10-27 10:56:00,
2013-10-27 06:01:00,28.2,23.3,29.91,South,180,0.0,0.0,82,0.00,,,0.00,WUHU216HW,2013-10-27 11:01:00,
2013-10-27 06:06:00,28.0,23.2,29.91,SSW,203,0.0,0.0,82,0.00,,,0.00,WUHU216HW,2013-10-27 11:06:00,
2013-10-27 06:11:00,28.0,23.2,29.91,SSW,203,0.0,0.0,82,0.00,,,0.00,WUHU216HW,2013-10-27 11:11:00,
2013-10-27 06:16:00,28.0,23.2,29.90,SW,225,0.0,0.0,82,0.00,,,0.00,WUHU216HW,2013-10-27 11:16:00,
2013-10-27 06:21:00,28.2,23.3,29.90,SSW,203,0.0,0.0,82,0.00,,,0.00,WUHU216HW,2013-10-27 11:21:00,
2013-10-27 06:26:00,28.2,23.3,29.90,SSW,203,0.0,0.0,82,0.00,,,0.00,WUHU216HW,2013-10-27 11:26:00,
2013-10-27 06:31:00,28.2,23.3,29.90,SSW,203,0.0,0.0,82,0.00,,,0.00,WUHU216HW,2013-10-27 11:31:00,
2013-10-27 06:36:00,28.2,23.6,29.90,SSW,203,0.0,0.0,83,0.00,,,0.00,WUHU216HW,2013-10-27 11:36:00,
2013-10-27 06:41:00,28.2,23.6,29.89,SSW,203,0.0,0.0,83,0.00,,,0.00,WUHU216HW,2013-10-27 11:41:00,
2013-10-27 06:46:00,28.2,23.6,29.89,SSW,203,0.0,0.0,83,0.00,,,0.00,WUHU216HW,2013-10-27 11:46:00,
2013-10-27 06:51:00,28.2,23.6,29.89,SSW,203,0.0,0.0,83,0.00,,,0.00,WUHU216HW,2013-10-27 11:51:00,
2013-10-27 06:56:00,28.5,24.0,29.89,SSW,203,0.0,0.0,83,0.00,,,0.00,WUHU216HW,2013-10-27 11:56:00,
2013-10-27 07:01:00,28.7,24.2,29.89,South,180,0.0,0.0,83,0.00,,,0.00,WUHU216HW,2013-10-27 12:01:00,
2013-10-27 07:06:00,28.9,24.4,29.88,SSW,203,0.0,0.0,83,0.00,,,0.00,WUHU216HW,2013-10-27 12:06:00,
2013-10-27 07:11:00,29.1,24.5,29.88,SSE,158,0.0,0.0,83,0.00,,,0.00,WUHU216HW,2013-10-27 12:11:00,
2013-10-27 07:16:00,29.1,24.5,29.87,SSW,203,0.0,0.0,83,0.00,,,0.00,WUHU216HW,2013-10-27 12:16:00,
2013-10-27 07:21:00,29.3,24.7,29.87,South,180,0.0,0.0,83,0.00,,,0.00,WUHU216HW,2013-10-27 12:21:00,
2013-10-27 07:26:00,29.4,24.9,29.87,SSW,203,0.0,0.0,83,0.00,,,0.00,WUHU216HW,2013-10-27 12:26:00,
2013-10-27 07:31:00,29.6,25.1,29.87,South,180,0.0,0.0,83,0.00,,,0.00,WUHU216HW,2013-10-27 12:31:00,
2013-10-27 07:36:00,29.8,25.3,29.87,SSW,203,0.0,0.0,83,0.00,,,0.00,WUHU216HW,2013-10-27 12:36:00,
2013-10-27 07:41:00,29.8,25.3,29.87,SSW,203,0.0,0.0,83,0.00,,,0.00,WUHU216HW,2013-10-27 12:41:00,
2013-10-27 07:46:00,30.0,25.4,29.87,South,180,0.0,0.0,83,0.00,,,0.00,WUHU216HW,2013-10-27 12:46:00,
2013-10-27 07:51:00,30.0,25.4,29.87,SSW,203,0.0,0.0,83,0.00,,,0.00,WUHU216HW,2013-10-27 12:51:00,
2013-10-27 07:56:00,30.0,25.6,29.86,SSW,203,0.0,0.0,83,0.00,,,0.00,WUHU216HW,2013-10-27 12:56:00,
2013-10-27 08:01:00,30.5,26.0,29.86,SW,225,0.0,0.0,83,0.00,,,0.00,WUHU216HW,2013-10-27 13:01:00,
2013-10-27 08:06:00,30.7,26.2,29.86,SSW,203,0.0,0.0,83,0.00,,,0.00,WUHU216HW,2013-10-27 13:06:00,
2013-10-27 08:11:00,31.2,26.7,29.86,South,180,0.0,0.0,83,0.00,,,0.00,WUHU216HW,2013-10-27 13:11:00,
2013-10-27 08:16:00,31.8,27.2,29.86,South,180,0.0,0.0,83,0.00,,,0.00,WUHU216HW,2013-10-27 13:16:00,
2013-10-27 08:21:00,32.3,27.7,29.86,SSW,203,0.0,0.0,83,0.00,,,0.00,WUHU216HW,2013-10-27 13:21:00,
2013-10-27 08:26:00,33.6,29.2,29.86,SSW,203,0.0,0.0,84,0.00,,,0.00,WUHU216HW,2013-10-27 13:26:00,
2013-10-27 08:31:00,34.3,29.9,29.86,SSW,203,0.0,0.0,84,0.00,,,0.00,WUHU216HW,2013-10-27 13:31:00,
2013-10-27 08:36:00,35.4,30.7,29.86,SSW,203,0.0,0.0,83,0.00,,,0.00,WUHU216HW,2013-10-27 13:36:00,
2013-10-27 08:41:00,36.1,31.1,29.86,South,180,0.0,0.0,82,0.00,,,0.00,WUHU216HW,2013-10-27 13:41:00,
2013-10-27 08:46:00,36.8,31.5,29.86,SSW,203,0.0,0.0,81,0.00,,,0.00,WUHU216HW,2013-10-27 13:46:00,
2013-10-27 08:51:00,37.9,32.9,29.86,South,180,0.0,0.0,82,0.00,,,0.00,WUHU216HW,2013-10-27 13:51:00,
2013-10-27 08:56:00,39.3,33.7,29.86,South,180,0.0,0.0,80,0.00,,,0.00,WUHU216HW,2013-10-27 13:56:00,
2013-10-27 09:01:00,40.2,34.2,29.85,South,180,0.0,0.0,79,0.00,,,0.00,WUHU216HW,2013-10-27 14:01:00,
2013-10-27 09:06:00,40.8,34.0,29.86,SSW,203,0.0,0.0,77,0.00,,,0.00,WUHU216HW,2013-10-27 14:06:00,
2013-10-27 09:11:00,41.5,34.1,29.86,South,180,0.0,0.0,75,0.00,,,0.00,WUHU216HW,2013-10-27 14:11:00,
2013-10-27 09:16:00,42.0,34.3,29.86,SSW,203,0.0,0.0,74,0.00,,,0.00,WUHU216HW,2013-10-27 14:16:00,
2013-10-27 09:21:00,42.6,34.5,29.85,SSW,203,0.0,0.0,73,0.00,,,0.00,WUHU216HW,2013-10-27 14:21:00,
2013-10-27 09:26:00,43.1,34.4,29.85,SSW,203,0.0,0.0,71,0.00,,,0.00,WUHU216HW,2013-10-27 14:26:00,
2013-10-27 09:31:00,43.5,34.4,29.85,SSW,203,0.0,0.0,70,0.00,,,0.00,WUHU216HW,2013-10-27 14:31:00,
2013-10-27 09:36:00,43.7,34.6,29.85,South,180,0.0,0.0,70,0.00,,,0.00,WUHU216HW,2013-10-27 14:36:00,
2013-10-27 09:41:00,44.0,34.5,29.85,SSW,203,0.0,0.0,69,0.00,,,0.00,WUHU216HW,2013-10-27 14:41:00,
2013-10-27 09:46:00,44.2,34.3,29.84,SW,225,0.0,0.0,68,0.00,,,0.00,WUHU216HW,2013-10-27 14:46:00,
2013-10-27 09:51:00,44.4,34.1,29.84,SSW,203,0.0,0.0,67,0.00,,,0.00,WUHU216HW,2013-10-27 14:51:00,
2013-10-27 09:56:00,44.7,34.0,29.84,SW,225,0.0,0.0,66,0.00,,,0.00,WUHU216HW,2013-10-27 14:56:00,
2013-10-27 10:01:00,44.9,34.2,29.83,SSW,203,0.0,0.0,66,0.00,,,0.00,WUHU216HW,2013-10-27 15:01:00,
2013-10-27 10:06:00,45.1,34.0,29.83,South,180,0.0,0.0,65,0.00,,,0.00,WUHU216HW,2013-10-27 15:06:00,
2013-10-27 10:11:00,45.5,33.9,29.83,SSW,203,0.0,0.0,64,0.00,,,0.00,WUHU216HW,2013-10-27 15:11:00,
2013-10-27 10:16:00,45.6,34.1,29.83,SSW,203,0.0,0.0,64,0.00,,,0.00,WUHU216HW,2013-10-27 15:16:00,
2013-10-27 10:21:00,46.2,34.6,29.83,South,180,0.0,0.0,64,0.00,,,0.00,WUHU216HW,2013-10-27 15:21:00,
2013-10-27 10:26:00,46.5,34.2,29.83,SSW,203,0.0,0.0,62,0.00,,,0.00,WUHU216HW,2013-10-27 15:26:00,
2013-10-27 10:31:00,46.9,34.5,29.83,SW,225,0.0,0.0,62,0.00,,,0.00,WUHU216HW,2013-10-27 15:31:00,
2013-10-27 10:36:00,47.3,34.9,29.83,SW,225,0.0,0.0,62,0.00,,,0.00,WUHU216HW,2013-10-27 15:36:00,
2013-10-27 10:41:00,48.0,34.8,29.82,South,180,0.0,0.0,60,0.00,,,0.00,WUHU216HW,2013-10-27 15:41:00,
2013-10-27 10:46:00,48.0,34.8,29.82,South,180,0.0,0.0,60,0.00,,,0.00,WUHU216HW,2013-10-27 15:46:00,
2013-10-27 10:51:00,48.0,34.4,29.82,South,180,0.0,0.0,59,0.00,,,0.00,WUHU216HW,2013-10-27 15:51:00,
2013-10-27 10:56:00,48.5,34.9,29.82,South,180,0.0,0.0,59,0.00,,,0.00,WUHU216HW,2013-10-27 15:56:00,
2013-10-27 11:01:00,49.1,34.9,29.82,SSW,203,0.0,0.0,58,0.00,,,0.00,WUHU216HW,2013-10-27 16:01:00,
2013-10-27 11:06:00,49.2,35.1,29.82,South,180,0.0,0.0,58,0.00,,,0.00,WUHU216HW,2013-10-27 16:06:00,
2013-10-27 11:11:00,50.0,35.3,29.82,SW,225,0.0,0.0,57,0.00,,,0.00,WUHU216HW,2013-10-27 16:11:00,
2013-10-27 11:16:00,50.5,35.3,29.82,South,180,0.0,0.0,56,0.00,,,0.00,WUHU216HW,2013-10-27 16:16:00,
2013-10-27 11:21:00,51.0,35.8,29.81,South,180,0.0,0.0,56,0.00,,,0.00,WUHU216HW,2013-10-27 16:21:00,
2013-10-27 11:26:00,51.9,36.2,29.82,SSW,203,0.0,0.0,55,0.00,,,0.00,WUHU216HW,2013-10-27 16:26:00,
2013-10-27 11:31:00,52.5,36.7,29.81,SSW,203,0.0,0.0,55,0.00,,,0.00,WUHU216HW,2013-10-27 16:31:00,
2013-10-27 11:36:00,52.5,36.2,29.81,SW,225,0.0,0.0,54,0.00,,,0.00,WUHU216HW,2013-10-27 16:36:00,
2013-10-27 11:41:00,52.8,36.1,29.82,SW,225,0.0,0.0,53,0.00,,,0.00,WUHU216HW,2013-10-27 16:41:00,
2013-10-27 11:46:00,53.2,36.4,29.82,SSW,203,0.0,0.0,53,0.00,,,0.00,WUHU216HW,2013-10-27 16:46:00,
2013-10-27 11:51:00,53.7,36.9,29.83,South,180,0.0,0.0,53,0.00,,,0.00,WUHU216HW,2013-10-27 16:51:00,
2013-10-27 11:56:00,54.5,36.6,29.82,West,270,0.0,0.0,51,0.00,,,0.00,WUHU216HW,2013-10-27 16:56:00,
2013-10-27 12:01:00,54.5,36.2,29.82,SSW,203,0.0,0.0,50,0.00,,,0.00,WUHU216HW,2013-10-27 17:01:00,
2013-10-27 12:06:00,54.6,36.8,29.82,SW,225,0.0,0.0,51,0.00,,,0.00,WUHU216HW,2013-10-27 17:06:00,
2013-10-27 12:11:00,55.0,36.7,29.82,South,180,0.0,0.0,50,0.00,,,0.00,WUHU216HW,2013-10-27 17:11:00,
2013-10-27 12:16:00,55.2,36.8,29.82,SSW,203,0.0,0.0,50,0.00,,,0.00,WUHU216HW,2013-10-27 17:16:00,
2013-10-27 12:21:00,55.5,37.2,29.82,SW,225,0.0,0.0,50,0.00,,,0.00,WUHU216HW,2013-10-27 17:21:00,
2013-10-27 12:26:00,55.7,37.4,29.81,West,270,0.0,0.0,50,0.00,,,0.00,WUHU216HW,2013-10-27 17:26:00,
2013-10-27 12:31:00,56.3,37.7,29.81,SSW,203,0.0,0.0,49,0.00,,,0.00,WUHU216HW,2013-10-27 17:31:00,
2013-10-27 12:36:00,56.4,37.5,29.81,South,180,0.0,0.0,49,0.00,,,0.00,WUHU216HW,2013-10-27 17:36:00,
2013-10-27 12:41:00,57.0,38.0,29.81,SSW,203,0.0,0.0,49,0.00,,,0.00,WUHU216HW,2013-10-27 17:41:00,
2013-10-27 12:46:00,57.0,38.0,29.81,South,180,0.0,0.0,49,0.00,,,0.00,WUHU216HW,2013-10-27 17:46:00,
2013-10-27 12:51:00,57.3,38.4,29.81,SW,225,0.0,0.0,49,0.00,,,0.00,WUHU216HW,2013-10-27 17:51:00,
2013-10-27 12:56:00,57.5,38.5,29.81,NNW,338,0.0,0.0,49,0.00,,,0.00,WUHU216HW,2013-10-27 17:56:00,
2013-10-27 13:01:00,57.7,38.3,29.81,South,180,0.0,0.0,48,0.00,,,0.00,WUHU216HW,2013-10-27 18:01:00,
2013-10-27 13:06:00,57.9,38.3,29.81,WNW,293,0.0,0.0,48,0.00,,,0.00,WUHU216HW,2013-10-27 18:06:00,
2013-10-27 13:11:00,57.9,38.3,29.80,SSW,203,0.0,0.0,48,0.00,,,0.00,WUHU216HW,2013-10-27 18:11:00,
2013-10-27 13:16:00,58.2,38.6,29.80,SW,225,0.0,0.0,48,0.00,,,0.00,WUHU216HW,2013-10-27 18:16:00,
2013-10-27 13:21:00,58.8,38.5,29.79,NW,315,0.0,0.0,47,0.00,,,0.00,WUHU216HW,2013-10-27 18:21:00,
2013-10-27 13:26:00,58.8,38.5,29.79,SSW,203,0.0,0.0,47,0.00,,,0.00,WUHU216HW,2013-10-27 18:26:00,
2013-10-27 13:31:00,58.8,38.5,29.80,SSW,203,0.0,0.0,47,0.00,,,0.00,WUHU216HW,2013-10-27 18:31:00,
2013-10-27 13:36:00,58.8,37.9,29.79,West,270,0.0,0.0,46,0.00,,,0.00,WUHU216HW,2013-10-27 18:36:00,
2013-10-27 13:41:00,58.8,38.5,29.79,WSW,248,0.0,0.0,47,0.00,,,0.00,WUHU216HW,2013-10-27 18:41:00,
2013-10-27 13:46:00,59.1,38.3,29.79,SW,225,0.0,0.0,46,0.00,,,0.00,WUHU216HW,2013-10-27 18:46:00,
2013-10-27 13:51:00,59.5,38.6,29.79,SW,225,0.0,0.0,46,0.00,,,0.00,WUHU216HW,2013-10-27 18:51:00,
2013-10-27 13:56:00,59.7,38.8,29.79,WSW,248,0.0,0.0,46,0.00,,,0.00,WUHU216HW,2013-10-27 18:56:00,
2013-10-27 14:01:00,60.2,39.1,29.79,SW,225,0.0,0.0,46,0.00,,,0.00,WUHU216HW,2013-10-27 19:01:00,
2013-10-27 14:06:00,60.4,38.8,29.79,South,180,0.0,0.0,45,0.00,,,0.00,WUHU216HW,2013-10-27 19:06:00,
2013-10-27 14:11:00,60.0,37.4,29.79,WNW,293,0.0,0.0,43,0.00,,,0.00,WUHU216HW,2013-10-27 19:11:00,
2013-10-27 14:16:00,59.3,37.3,29.78,SSW,203,0.0,0.0,44,0.00,,,0.00,WUHU216HW,2013-10-27 19:16:00,
2013-10-27 14:21:00,59.7,38.2,29.79,WSW,248,0.0,0.0,45,0.00,,,0.00,WUHU216HW,2013-10-27 19:21:00,
2013-10-27 14:26:00,60.0,37.9,29.79,SSE,158,0.0,0.0,44,0.00,,,0.00,WUHU216HW,2013-10-27 19:26:00,
2013-10-27 14:31:00,60.0,37.9,29.79,NW,315,0.0,0.0,44,0.00,,,0.00,WUHU216HW,2013-10-27 19:31:00,
2013-10-27 14:36:00,60.0,37.9,29.79,SSW,203,0.0,0.0,44,0.00,,,0.00,WUHU216HW,2013-10-27 19:36:00,
2013-10-27 14:41:00,60.0,38.5,29.79,SSW,203,0.0,0.0,45,0.00,,,0.00,WUHU216HW,2013-10-27 19:41:00,
2013-10-27 14:46:00,60.4,37.7,29.79,WNW,293,0.0,0.0,43,0.00,,,0.00,WUHU216HW,2013-10-27 19:46:00,
2013-10-27 14:51:00,60.0,37.4,29.79,West,270,0.0,0.0,43,0.00,,,0.00,WUHU216HW,2013-10-27 19:51:00,
2013-10-27 14:56:00,59.7,37.0,29.79,West,270,0.0,0.0,43,0.00,,,0.00,WUHU216HW,2013-10-27 19:56:00,
2013-10-27 15:01:00,58.8,36.5,29.79,WNW,293,0.0,0.0,43,0.00,,,0.00,WUHU216HW,2013-10-27 20:01:00,
2013-10-27 15:06:00,58.8,36.2,29.79,NW,315,0.0,0.0,43,0.00,,,0.00,WUHU216HW,2013-10-27 20:06:00,
2013-10-27 15:11:00,58.8,36.8,29.79,NW,315,0.0,0.0,44,0.00,,,0.00,WUHU216HW,2013-10-27 20:11:00,
2013-10-27 15:16:00,59.1,37.1,29.80,WNW,293,0.0,0.0,44,0.00,,,0.00,WUHU216HW,2013-10-27 20:16:00,
2013-10-27 15:21:00,59.1,36.5,29.80,NW,315,0.0,0.0,43,0.00,,,0.00,WUHU216HW,2013-10-27 20:21:00,
2013-10-27 15:26:00,59.0,36.4,29.80,WNW,293,0.0,0.0,43,0.00,,,0.00,WUHU216HW,2013-10-27 20:26:00,
2013-10-27 15:31:00,59.1,36.4,29.80,NW,315,0.0,0.0,43,0.00,,,0.00,WUHU216HW,2013-10-27 20:31:00,
2013-10-27 15:36:00,58.8,36.2,29.80,NNW,338,0.0,0.0,43,0.00,,,0.00,WUHU216HW,2013-10-27 20:36:00,
2013-10-27 15:41:00,58.8,36.2,29.80,WNW,293,0.0,0.0,43,0.00,,,0.00,WUHU216HW,2013-10-27 20:41:00,
2013-10-27 15:46:00,58.8,36.8,29.81,NW,315,0.0,0.0,44,0.00,,,0.00,WUHU216HW,2013-10-27 20:46:00,
2013-10-27 15:51:00,58.8,36.8,29.81,North,0,0.0,0.0,44,0.00,,,0.00,WUHU216HW,2013-10-27 20:51:00,
2013-10-27 15:56:00,58.8,36.8,29.81,NW,315,0.0,0.0,44,0.00,,,0.00,WUHU216HW,2013-10-27 20:56:00,
2013-10-27 16:01:00,58.8,36.8,29.81,NW,315,0.0,0.0,44,0.00,,,0.00,WUHU216HW,2013-10-27 21:01:00,
2013-10-27 16:06:00,58.8,36.8,29.82,North,0,0.0,0.0,44,0.00,,,0.00,WUHU216HW,2013-10-27 21:06:00,
2013-10-27 16:11:00,58.8,36.8,29.82,WNW,293,0.0,0.0,44,0.00,,,0.00,WUHU216HW,2013-10-27 21:11:00,
2013-10-27 16:16:00,58.4,37.0,29.82,NW,315,0.0,0.0,45,0.00,,,0.00,WUHU216HW,2013-10-27 21:16:00,
2013-10-27 16:21:00,58.4,37.0,29.82,NW,315,0.0,0.0,45,0.00,,,0.00,WUHU216HW,2013-10-27 21:21:00,
2013-10-27 16:26:00,58.1,36.7,29.82,NW,315,0.0,0.0,45,0.00,,,0.00,WUHU216HW,2013-10-27 21:26:00,
2013-10-27 16:31:00,57.9,36.6,29.82,NW,315,0.0,0.0,45,0.00,,,0.00,WUHU216HW,2013-10-27 21:31:00,
2013-10-27 16:36:00,57.7,36.4,29.83,NW,315,0.0,0.0,45,0.00,,,0.00,WUHU216HW,2013-10-27 21:36:00,
2013-10-27 16:41:00,57.3,36.1,29.83,WNW,293,0.0,0.0,45,0.00,,,0.00,WUHU216HW,2013-10-27 21:41:00,
2013-10-27 16:46:00,57.0,35.7,29.83,NW,315,0.0,0.0,45,0.00,,,0.00,WUHU216HW,2013-10-27 21:46:00,
2013-10-27 16:51:00,56.8,36.1,29.83,NW,315,0.0,0.0,46,0.00,,,0.00,WUHU216HW,2013-10-27 21:51:00,
2013-10-27 16:56:00,56.8,36.1,29.84,NNW,338,0.0,0.0,46,0.00,,,0.00,WUHU216HW,2013-10-27 21:56:00,
2013-10-27 17:01:00,56.4,35.8,29.84,NW,315,0.0,0.0,46,0.00,,,0.00,WUHU216HW,2013-10-27 22:01:00,
2013-10-27 17:06:00,56.1,36.0,29.84,North,0,0.0,0.0,47,0.00,,,0.00,WUHU216HW,2013-10-27 22:06:00,
2013-10-27 17:11:00,55.7,35.7,29.85,NW,315,0.0,0.0,47,0.00,,,0.00,WUHU216HW,2013-10-27 22:11:00,
2013-10-27 17:16:00,55.2,35.2,29.85,NW,315,0.0,0.0,47,0.00,,,0.00,WUHU216HW,2013-10-27 22:16:00,
2013-10-27 17:21:00,55.0,35.6,29.85,NNW,338,0.0,0.0,48,0.00,,,0.00,WUHU216HW,2013-10-27 22:21:00,
2013-10-27 17:26:00,54.6,35.2,29.86,NW,315,0.0,0.0,48,0.00,,,0.00,WUHU216HW,2013-10-27 22:26:00,
2013-10-27 17:31:00,54.1,35.3,29.86,NNW,338,0.0,0.0,49,0.00,,,0.00,WUHU216HW,2013-10-27 22:31:00,
2013-10-27 17:36:00,53.7,35.0,29.86,North,0,0.0,0.0,49,0.00,,,0.00,WUHU216HW,2013-10-27 22:36:00,
2013-10-27 17:41:00,53.4,34.7,29.86,NNW,338,0.0,0.0,49,0.00,,,0.00,WUHU216HW,2013-10-27 22:41:00,
2013-10-27 17:46:00,52.8,34.7,29.86,NNW,338,0.0,0.0,50,0.00,,,0.00,WUHU216HW,2013-10-27 22:46:00,
2013-10-27 17:51:00,52.3,34.2,29.87,NNW,338,0.0,0.0,50,0.00,,,0.00,WUHU216HW,2013-10-27 22:51:00,
2013-10-27 17:56:00,51.9,34.4,29.87,NNW,338,0.0,0.0,51,0.00,,,0.00,WUHU216HW,2013-10-27 22:56:00,
2013-10-27 18:01:00,51.2,33.7,29.87,North,0,0.0,0.0,51,0.00,,,0.00,WUHU216HW,2013-10-27 23:01:00,
2013-10-27 18:06:00,50.7,33.7,29.87,North,0,0.0,0.0,52,0.00,,,0.00,WUHU216HW,2013-10-27 23:06:00,
2013-10-27 18:11:00,50.3,33.4,29.87,North,0,0.0,0.0,52,0.00,,,0.00,WUHU216HW,2013-10-27 23:11:00,
2013-10-27 18:16:00,49.8,33.3,29.87,North,0,0.0,0.0,53,0.00,,,0.00,WUHU216HW,2013-10-27 23:16:00,
2013-10-27 18:21:00,49.6,33.1,29.88,North,0,0.0,0.0,53,0.00,,,0.00,WUHU216HW,2013-10-27 23:21:00,
2013-10-27 18:26:00,49.1,32.6,29.88,North,0,0.0,0.0,53,0.00,,,0.00,WUHU216HW,2013-10-27 23:26:00,
2013-10-27 18:31:00,48.2,31.7,29.88,North,0,0.0,0.0,53,0.00,,,0.00,WUHU216HW,2013-10-27 23:31:00,
2013-10-27 18:36:00,47.3,31.4,29.89,North,0,0.0,0.0,54,0.00,,,0.00,WUHU216HW,2013-10-27 23:36:00,
2013-10-27 18:41:00,46.5,31.1,29.89,North,0,0.0,0.0,55,0.00,,,0.00,WUHU216HW,2013-10-27 23:41:00,
2013-10-27 18:46:00,45.3,30.0,29.89,North,0,0.0,0.0,55,0.00,,,0.00,WUHU216HW,2013-10-27 23:46:00,
2013-10-27 18:51:00,44.7,30.4,29.89,North,0,0.0,0.0,57,0.00,,,0.00,WUHU216HW,2013-10-27 23:51:00,
2013-10-27 18:56:00,44.2,29.9,29.90,North,0,0.0,0.0,57,0.00,,,0.00,WUHU216HW,2013-10-27 23:56:00,
2013-10-27 19:01:00,43.5,30.1,29.90,North,0,0.0,0.0,59,0.00,,,0.00,WUHU216HW,2013-10-28 00:01:00,
2013-10-27 19:06:00,43.3,29.9,29.90,North,0,0.0,0.0,59,0.00,,,0.00,WUHU216HW,2013-10-28 00:06:00,
2013-10-27 19:11:00,43.3,30.3,29.91,North,0,0.0,0.0,60,0.00,,,0.00,WUHU216HW,2013-10-28 00:11:00,
2013-10-27 19:16:00,42.9,30.0,29.91,North,0,0.0,0.0,60,0.00,,,0.00,WUHU216HW,2013-10-28 00:16:00,
2013-10-27 19:21:00,42.6,29.6,29.92,North,0,0.0,0.0,60,0.00,,,0.00,WUHU216HW,2013-10-28 00:21:00,
2013-10-27 19:26:00,42.6,30.0,29.92,North,0,0.0,0.0,61,0.00,,,0.00,WUHU216HW,2013-10-28 00:26:00,
2013-10-27 19:31:00,42.4,30.2,29.92,North,0,0.0,0.0,62,0.00,,,0.00,WUHU216HW,2013-10-28 00:31:00,
2013-10-27 19:36:00,42.6,30.4,29.92,North,0,0.0,0.0,62,0.00,,,0.00,WUHU216HW,2013-10-28 00:36:00,
2013-10-27 19:41:00,42.9,31.1,29.93,NNW,338,0.0,0.0,63,0.00,,,0.00,WUHU216HW,2013-10-28 00:41:00,
2013-10-27 19:46:00,43.7,32.2,29.94,East,90,0.0,0.0,64,0.00,,,0.00,WUHU216HW,2013-10-28 00:46:00,
2013-10-27 19:51:00,44.0,32.6,29.94,NW,315,0.0,0.0,64,0.00,,,0.00,WUHU216HW,2013-10-28 00:51:00,
2013-10-27 19:56:00,44.2,32.7,29.94,North,0,0.0,0.0,64,0.00,,,0.00,WUHU216HW,2013-10-28 00:56:00,
2013-10-27 20:01:00,44.2,32.7,29.94,NNW,338,0.0,0.0,64,0.00,,,0.00,WUHU216HW,2013-10-28 01:01:00,
2013-10-27 20:06:00,44.2,32.7,29.95,NW,315,0.0,0.0,64,0.00,,,0.00,WUHU216HW,2013-10-28 01:06:00,
2013-10-27 20:11:00,44.0,32.6,29.95,NNW,338,0.0,0.0,64,0.00,,,0.00,WUHU216HW,2013-10-28 01:11:00,
2013-10-27 20:16:00,43.8,32.4,29.95,NW,315,0.0,0.0,64,0.00,,,0.00,WUHU216HW,2013-10-28 01:16:00,
2013-10-27 20:21:00,43.7,32.2,29.95,WNW,293,0.0,0.0,64,0.00,,,0.00,WUHU216HW,2013-10-28 01:21:00,
2013-10-27 20:26:00,43.5,32.1,29.96,North,0,0.0,0.0,64,0.00,,,0.00,WUHU216HW,2013-10-28 01:26:00,
2013-10-27 20:31:00,43.5,32.1,29.96,NW,315,0.0,0.0,64,0.00,,,0.00,WUHU216HW,2013-10-28 01:31:00,
2013-10-27 20:36:00,43.5,32.1,29.97,NW,315,0.0,0.0,64,0.00,,,0.00,WUHU216HW,2013-10-28 01:36:00,
2013-10-27 20:41:00,43.3,31.9,29.97,WNW,293,0.0,0.0,64,0.00,,,0.00,WUHU216HW,2013-10-28 01:41:00,
2013-10-27 20:46:00,43.1,31.7,29.97,NNW,338,0.0,0.0,64,0.00,,,0.00,WUHU216HW,2013-10-28 01:46:00,
2013-10-27 20:51:00,42.9,31.5,29.97,North,0,0.0,0.0,64,0.00,,,0.00,WUHU216HW,2013-10-28 01:51:00,
2013-10-27 20:56:00,42.6,31.6,29.97,North,0,0.0,0.0,65,0.00,,,0.00,WUHU216HW,2013-10-28 01:56:00,
2013-10-27 21:01:00,42.4,31.4,29.98,North,0,0.0,0.0,65,0.00,,,0.00,WUHU216HW,2013-10-28 02:01:00,
2013-10-27 21:06:00,42.4,31.8,29.98,NW,315,0.0,0.0,66,0.00,,,0.00,WUHU216HW,2013-10-28 02:06:00,
2013-10-27 21:11:00,42.4,31.8,29.99,North,0,0.0,0.0,66,0.00,,,0.00,WUHU216HW,2013-10-28 02:11:00,
2013-10-27 21:16:00,42.6,32.0,29.99,NNE,23,0.0,0.0,66,0.00,,,0.00,WUHU216HW,2013-10-28 02:16:00,
2013-10-27 21:21:00,42.6,32.0,29.99,NNW,338,0.0,0.0,66,0.00,,,0.00,WUHU216HW,2013-10-28 02:21:00,
2013-10-27 21:26:00,42.6,32.0,29.99,WNW,293,0.0,0.0,66,0.00,,,0.00,WUHU216HW,2013-10-28 02:26:00,
2013-10-27 21:31:00,42.6,32.0,30.00,NNW,338,0.0,0.0,66,0.00,,,0.00,WUHU216HW,2013-10-28 02:31:00,
2013-10-27 21:36:00,42.6,32.0,30.00,NW,315,0.0,0.0,66,0.00,,,0.00,WUHU216HW,2013-10-28 02:36:00,
2013-10-27 21:41:00,42.6,32.4,30.00,WNW,293,0.0,0.0,66,0.00,,,0.00,WUHU216HW,2013-10-28 02:41:00,
2013-10-27 21:46:00,42.4,32.2,30.01,East,90,0.0,0.0,67,0.00,,,0.00,WUHU216HW,2013-10-28 02:46:00,
2013-10-27 21:51:00,42.4,32.2,30.00,WSW,248,0.0,0.0,67,0.00,,,0.00,WUHU216HW,2013-10-28 02:51:00,
2013-10-27 21:56:00,42.4,32.2,30.01,SW,225,0.0,0.0,67,0.00,,,0.00,WUHU216HW,2013-10-28 02:56:00,
2013-10-27 22:01:00,42.4,31.8,30.01,WNW,293,0.0,0.0,66,0.00,,,0.00,WUHU216HW,2013-10-28 03:01:00,
2013-10-27 22:06:00,42.4,31.8,30.01,WSW,248,0.0,0.0,66,0.00,,,0.00,WUHU216HW,2013-10-28 03:06:00,
2013-10-27 22:11:00,42.0,31.9,30.02,NE,45,0.0,0.0,67,0.00,,,0.00,WUHU216HW,2013-10-28 03:11:00,
2013-10-27 22:16:00,42.0,31.9,30.02,NW,315,0.0,0.0,67,0.00,,,0.00,WUHU216HW,2013-10-28 03:16:00,
2013-10-27 22:21:00,41.9,31.7,30.03,NW,315,0.0,0.0,67,0.00,,,0.00,WUHU216HW,2013-10-28 03:21:00,
2013-10-27 22:26:00,41.7,31.5,30.02,North,0,0.0,0.0,67,0.00,,,0.00,WUHU216HW,2013-10-28 03:26:00,
2013-10-27 22:31:00,41.7,31.5,30.04,ENE,68,0.0,0.0,67,0.00,,,0.00,WUHU216HW,2013-10-28 03:31:00,
2013-10-27 22:36:00,41.5,31.3,30.04,SE,135,0.0,0.0,67,0.00,,,0.00,WUHU216HW,2013-10-28 03:36:00,
2013-10-27 22:41:00,41.1,31.2,30.03,NW,315,0.0,0.0,67,0.00,,,0.00,WUHU216HW,2013-10-28 03:41:00,
2013-10-27 22:46:00,41.0,30.8,30.04,NNE,23,0.0,0.0,67,0.00,,,0.00,WUHU216HW,2013-10-28 03:46:00,
2013-10-27 22:51:00,40.8,31.0,30.04,NE,45,0.0,0.0,68,0.00,,,0.00,WUHU216HW,2013-10-28 03:51:00,
2013-10-27 22:56:00,40.8,31.0,30.05,NE,45,0.0,0.0,68,0.00,,,0.00,WUHU216HW,2013-10-28 03:56:00,
2013-10-27 23:01:00,40.8,31.0,30.05,ENE,68,0.0,0.0,68,0.00,,,0.00,WUHU216HW,2013-10-28 04:01:00,
2013-10-27 23:02:00,40.8,31.0,30.05,NE,45,0.0,0.0,68,0.00,,,0.00,WUHU216HW,2013-10-28 04:02:00,
2013-10-27 23:07:00,40.8,31.0,30.05,ESE,113,0.0,0.0,68,0.00,,,0.00,WUHU216HW,2013-10-28 04:07:00,
2013-10-27 23:11:00,40.6,30.8,30.05,NW,315,0.0,0.0,68,0.00,,,0.00,WUHU216HW,2013-10-28 04:11:00,
2013-10-27 23:16:00,40.4,30.7,30.06,South,180,0.0,0.0,68,0.00,,,0.00,WUHU216HW,2013-10-28 04:16:00,
2013-10-27 23:21:00,40.4,30.7,30.06,NNE,23,0.0,0.0,68,0.00,,,0.00,WUHU216HW,2013-10-28 04:21:00,
2013-10-27 23:26:00,40.2,30.7,30.06,NE,45,0.0,0.0,68,0.00,,,0.00,WUHU216HW,2013-10-28 04:26:00,
2013-10-27 23:31:00,40.4,30.7,30.06,ENE,68,0.0,0.0,68,0.00,,,0.00,WUHU216HW,2013-10-28 04:31:00,
2013-10-27 23:36:00,40.2,30.5,30.07,NE,45,0.0,0.0,68,0.00,,,0.00,WUHU216HW,2013-10-28 04:36:00,
2013-10-27 23:41:00,40.2,30.7,30.07,ENE,68,0.0,0.0,69,0.00,,,0.00,WUHU216HW,2013-10-28 04:41:00,
2013-10-27 23:46:00,39.9,30.5,30.08,NE,45,0.0,0.0,69,0.00,,,0.00,WUHU216HW,2013-10-28 04:46:00,
2013-10-27 23:51:00,39.9,30.5,30.08,ENE,68,0.0,0.0,69,0.00,,,0.00,WUHU216HW,2013-10-28 04:51:00,
2013-10-27 23:57:00,39.9,30.5,30.08,NNW,338,0.0,0.0,69,0.00,,,0.00,WUHU216HW,2013-10-28 04:57:00,